createdAt,value
2023-04-07T00:00:31.298Z,29.60
2023-04-07T00:01:31.334Z,30.80
2023-04-07T00:02:31.294Z,31.00
2023-04-07T00:03:31.491Z,33.80
2023-04-07T00:04:31.253Z,31.10
2023-04-07T00:05:31.286Z,31.10
2023-04-07T00:06:31.170Z,31.50
2023-04-07T00:07:31.831Z,31.80
2023-04-07T00:08:31.188Z,31.50
2023-04-07T00:09:31.154Z,33.50
2023-04-07T00:10:31.154Z,34.00
2023-04-07T00:11:31.104Z,33.80
2023-04-07T00:12:31.176Z,32.80
2023-04-07T00:13:31.118Z,34.20
2023-04-07T00:14:31.191Z,38.30
2023-04-07T00:15:31.122Z,36.00
2023-04-07T00:16:31.081Z,33.30
2023-04-07T00:17:31.147Z,33.50
2023-04-07T00:18:31.076Z,32.90
2023-04-07T00:19:30.997Z,38.80
2023-04-07T00:20:31.005Z,37.80
2023-04-07T00:21:30.980Z,34.70
2023-04-07T00:22:30.968Z,35.20
2023-04-07T00:23:30.944Z,32.40
2023-04-07T00:24:34.285Z,32.20
2023-04-07T00:25:30.938Z,33.60
2023-04-07T00:26:30.938Z,34.20
2023-04-07T00:27:30.920Z,35.90
2023-04-07T00:28:30.927Z,32.30
2023-04-07T00:29:30.887Z,38.90
2023-04-07T00:30:30.874Z,36.30
2023-04-07T00:31:30.926Z,33.10
2023-04-07T00:32:30.880Z,33.30
2023-04-07T00:33:30.853Z,35.10
2023-04-07T00:34:30.859Z,34.10
2023-04-07T00:35:30.912Z,34.10
2023-04-07T00:36:30.791Z,33.90
2023-04-07T00:37:30.819Z,32.30
2023-04-07T00:38:30.773Z,33.30
2023-04-07T00:39:30.760Z,32.10
2023-04-07T00:40:30.738Z,32.60
2023-04-07T00:41:30.718Z,37.10
2023-04-07T00:42:30.724Z,35.30
2023-04-07T00:43:30.740Z,38.40
2023-04-07T00:44:30.724Z,35.80
2023-04-07T00:45:30.671Z,33.30
2023-04-07T00:46:30.738Z,32.90
2023-04-07T00:47:30.660Z,35.60
2023-04-07T00:48:30.647Z,35.40
2023-04-07T00:49:30.663Z,35.40
2023-04-07T00:50:30.628Z,37.60
2023-04-07T00:51:30.644Z,36.00
2023-04-07T00:52:30.594Z,37.10
2023-04-07T00:53:30.591Z,37.30
2023-04-07T00:54:30.572Z,37.30
2023-04-07T00:55:30.582Z,38.70
2023-04-07T00:56:30.633Z,38.80
2023-04-07T00:57:30.675Z,39.10
2023-04-07T00:58:30.535Z,39.80
2023-04-07T00:59:30.535Z,37.10
2023-04-07T01:00:30.517Z,37.70
2023-04-07T01:01:30.637Z,41.00
2023-04-07T01:02:30.681Z,42.00
2023-04-07T01:03:30.766Z,41.80
2023-04-07T01:04:30.605Z,43.30
2023-04-07T01:05:30.444Z,42.20
2023-04-07T01:06:30.506Z,43.40
2023-04-07T01:07:30.437Z,43.00
2023-04-07T01:08:30.410Z,45.10
2023-04-07T01:09:30.432Z,42.70
2023-04-07T01:10:30.424Z,48.00
2023-04-07T01:11:30.365Z,38.10
2023-04-07T01:12:30.354Z,41.80
2023-04-07T01:13:30.358Z,46.30
2023-04-07T01:14:30.400Z,40.20
2023-04-07T01:15:30.332Z,38.80
2023-04-07T01:16:30.426Z,40.40
2023-04-07T01:17:30.289Z,39.90
2023-04-07T01:18:30.274Z,41.50
2023-04-07T01:19:30.301Z,40.80
2023-04-07T01:20:30.262Z,36.50
2023-04-07T01:21:30.234Z,37.70
2023-04-07T01:22:30.229Z,38.80
2023-04-07T01:23:30.220Z,46.30
2023-04-07T01:24:30.207Z,39.40
2023-04-07T01:25:30.210Z,43.50
2023-04-07T01:26:30.219Z,36.10
2023-04-07T01:27:30.155Z,47.70
2023-04-07T01:28:30.160Z,40.20
2023-04-07T01:29:30.119Z,41.20
2023-04-07T01:30:30.161Z,40.70
2023-04-07T01:31:30.186Z,43.50
2023-04-07T01:32:30.141Z,41.40
2023-04-07T01:33:30.090Z,40.20
2023-04-07T01:34:30.051Z,46.50
2023-04-07T01:35:30.067Z,38.50
2023-04-07T01:36:30.040Z,38.30
2023-04-07T01:37:30.053Z,39.10
2023-04-07T01:38:30.008Z,43.70
2023-04-07T01:39:30.004Z,50.30
2023-04-07T01:40:30.001Z,47.10
2023-04-07T01:41:29.971Z,43.40
2023-04-07T01:42:29.995Z,48.60
2023-04-07T01:43:29.943Z,42.90
2023-04-07T01:44:29.949Z,38.10
2023-04-07T01:45:29.947Z,37.50
2023-04-07T01:46:29.912Z,39.10
2023-04-07T01:47:29.998Z,42.30
2023-04-07T01:48:29.980Z,42.10
2023-04-07T01:49:29.903Z,41.70
2023-04-07T01:50:30.103Z,43.20
2023-04-07T01:51:29.928Z,43.30
2023-04-07T01:52:29.900Z,40.40
2023-04-07T01:53:29.855Z,47.70
2023-04-07T01:54:29.819Z,43.10
2023-04-07T01:55:29.801Z,42.00
2023-04-07T01:56:29.815Z,49.00
2023-04-07T01:57:29.813Z,50.50
2023-04-07T01:58:29.788Z,41.50
2023-04-07T01:59:29.792Z,42.60
2023-04-07T02:00:29.767Z,43.20
2023-04-07T02:01:29.882Z,44.10
2023-04-07T02:02:29.846Z,42.20
2023-04-07T02:03:29.863Z,42.60
2023-04-07T02:04:29.712Z,38.80
2023-04-07T02:05:29.755Z,41.20
2023-04-07T02:06:29.683Z,41.80
2023-04-07T02:07:29.718Z,40.30
2023-04-07T02:08:31.179Z,42.10
2023-04-07T02:09:29.701Z,40.50
2023-04-07T02:10:38.380Z,40.20
2023-04-07T02:11:29.597Z,38.10
2023-04-07T02:12:29.619Z,41.30
2023-04-07T02:13:29.639Z,39.20
2023-04-07T02:14:29.608Z,39.60
2023-04-07T02:15:29.650Z,42.20
2023-04-07T02:16:29.607Z,40.20
2023-04-07T02:17:29.636Z,41.00
2023-04-07T02:18:29.514Z,36.90
2023-04-07T02:19:29.514Z,38.60
2023-04-07T02:20:29.549Z,38.60
2023-04-07T02:21:29.496Z,43.90
2023-04-07T02:22:29.491Z,41.30
2023-04-07T02:23:39.200Z,39.90
2023-04-07T02:24:36.970Z,44.00
2023-04-07T02:25:29.450Z,41.20
2023-04-07T02:26:29.456Z,39.50
2023-04-07T02:27:29.430Z,40.60
2023-04-07T02:28:29.439Z,39.70
2023-04-07T02:29:29.396Z,43.50
2023-04-07T02:30:29.393Z,42.50
2023-04-07T02:31:29.426Z,43.40
2023-04-07T02:32:29.431Z,39.40
2023-04-07T02:33:29.350Z,42.30
2023-04-07T02:34:29.365Z,41.90
2023-04-07T02:35:29.311Z,42.70
2023-04-07T02:36:29.338Z,42.10
2023-04-07T02:37:29.331Z,40.00
2023-04-07T02:38:29.277Z,40.60
2023-04-07T02:39:29.292Z,43.40
2023-04-07T02:40:29.263Z,43.60
2023-04-07T02:41:29.240Z,45.10
2023-04-07T02:42:29.267Z,38.60
2023-04-07T02:43:29.224Z,38.30
2023-04-07T02:44:29.227Z,39.30
2023-04-07T02:45:29.201Z,43.50
2023-04-07T02:46:29.286Z,42.20
2023-04-07T02:47:29.234Z,38.30
2023-04-07T02:48:29.142Z,40.40
2023-04-07T02:49:29.155Z,42.90
2023-04-07T02:50:29.186Z,38.30
2023-04-07T02:51:29.133Z,38.90
2023-04-07T02:52:29.123Z,40.10
2023-04-07T02:53:29.090Z,40.70
2023-04-07T02:54:29.105Z,39.60
2023-04-07T02:55:29.072Z,40.40
2023-04-07T02:56:29.064Z,42.40
2023-04-07T02:57:29.060Z,39.80
2023-04-07T02:58:29.030Z,39.00
2023-04-07T02:59:29.028Z,40.60
2023-04-07T03:00:29.004Z,40.90
2023-04-07T03:01:29.025Z,45.60
2023-04-07T03:02:29.076Z,41.50
2023-04-07T03:03:29.180Z,43.80
2023-04-07T03:04:28.976Z,43.30
2023-04-07T03:05:28.930Z,43.60
2023-04-07T03:06:28.911Z,41.10
2023-04-07T03:07:28.930Z,38.20
2023-04-07T03:08:28.904Z,39.00
2023-04-07T03:09:28.890Z,42.30
2023-04-07T03:10:28.869Z,38.90
2023-04-07T03:11:28.876Z,38.90
2023-04-07T03:12:28.848Z,37.20
2023-04-07T03:13:28.811Z,37.60
2023-04-07T03:14:28.839Z,37.90
2023-04-07T03:15:28.809Z,39.40
2023-04-07T03:16:28.786Z,36.30
2023-04-07T03:17:28.838Z,39.20
2023-04-07T03:18:28.805Z,35.60
2023-04-07T03:19:28.736Z,33.30
2023-04-07T03:20:30.020Z,35.20
2023-04-07T03:21:28.783Z,34.90
2023-04-07T03:22:28.718Z,34.90
2023-04-07T03:23:29.421Z,32.80
2023-04-07T03:24:28.697Z,34.30
2023-04-07T03:25:28.708Z,34.10
2023-04-07T03:26:28.682Z,33.40
2023-04-07T03:27:28.714Z,36.80
2023-04-07T03:28:28.814Z,32.60
2023-04-07T03:29:28.712Z,36.10
2023-04-07T03:30:28.755Z,32.60
2023-04-07T03:31:28.676Z,33.90
2023-04-07T03:32:28.589Z,31.80
2023-04-07T03:33:28.596Z,33.80
2023-04-07T03:34:28.563Z,36.90
2023-04-07T03:35:28.534Z,33.30
2023-04-07T03:36:28.572Z,29.60
2023-04-07T03:37:28.511Z,31.20
2023-04-07T03:38:28.538Z,30.80
2023-04-07T03:39:28.538Z,31.70
2023-04-07T03:40:28.484Z,32.30
2023-04-07T03:41:28.531Z,33.50
2023-04-07T03:42:28.492Z,32.00
2023-04-07T03:43:28.461Z,30.40
2023-04-07T03:44:28.501Z,32.00
2023-04-07T03:45:28.414Z,32.50
2023-04-07T03:46:28.467Z,30.90
2023-04-07T03:47:28.445Z,31.70
2023-04-07T03:48:29.265Z,32.40
2023-04-07T03:49:28.347Z,34.00
2023-04-07T03:50:28.354Z,30.20
2023-04-07T03:51:28.331Z,30.40
2023-04-07T03:52:28.326Z,30.10
2023-04-07T03:53:28.313Z,32.50
2023-04-07T03:54:28.333Z,30.10
2023-04-07T03:55:28.303Z,32.40
2023-04-07T03:56:29.057Z,31.90
2023-04-07T03:57:28.249Z,31.00
2023-04-07T03:58:28.256Z,31.80
2023-04-07T03:59:28.246Z,31.00
2023-04-07T04:00:28.249Z,30.70
2023-04-07T04:01:28.275Z,33.50
2023-04-07T04:02:28.235Z,35.10
2023-04-07T04:03:28.314Z,32.10
2023-04-07T04:04:28.285Z,30.60
2023-04-07T04:05:28.158Z,29.90
2023-04-07T04:06:28.174Z,31.20
2023-04-07T04:07:28.160Z,32.00
2023-04-07T04:08:28.108Z,31.80
2023-04-07T04:09:28.131Z,32.90
2023-04-07T04:10:28.095Z,32.60
2023-04-07T04:11:28.101Z,31.10
2023-04-07T04:12:28.059Z,33.60
2023-04-07T04:13:28.070Z,33.90
2023-04-07T04:14:28.057Z,34.10
2023-04-07T04:15:28.062Z,33.20
2023-04-07T04:16:28.058Z,31.10
2023-04-07T04:17:28.057Z,32.10
2023-04-07T04:18:28.018Z,32.00
2023-04-07T04:19:28.006Z,30.00
2023-04-07T04:20:27.947Z,31.20
2023-04-07T04:21:27.961Z,33.20
2023-04-07T04:22:28.008Z,36.30
2023-04-07T04:23:27.937Z,29.30
2023-04-07T04:24:27.934Z,30.00
2023-04-07T04:25:27.901Z,30.70
2023-04-07T04:26:27.897Z,31.30
2023-04-07T04:27:27.909Z,30.10
2023-04-07T04:28:27.852Z,29.30
2023-04-07T04:29:27.844Z,29.30
2023-04-07T04:30:27.869Z,31.80
2023-04-07T04:31:27.935Z,31.20
2023-04-07T04:32:27.868Z,28.70
2023-04-07T04:33:27.808Z,28.10
2023-04-07T04:34:27.829Z,28.40
2023-04-07T04:35:27.782Z,30.70
2023-04-07T04:36:27.835Z,30.50
2023-04-07T04:37:27.748Z,27.80
2023-04-07T04:38:27.741Z,30.80
2023-04-07T04:39:27.766Z,26.70
2023-04-07T04:40:27.748Z,27.10
2023-04-07T04:41:27.865Z,26.50
2023-04-07T04:42:27.814Z,27.30
2023-04-07T04:43:27.668Z,27.30
2023-04-07T04:44:27.664Z,25.00
2023-04-07T04:45:27.648Z,27.00
2023-04-07T04:46:27.666Z,25.70
2023-04-07T04:47:27.659Z,26.80
2023-04-07T04:48:27.637Z,25.90
2023-04-07T04:49:27.593Z,27.30
2023-04-07T04:50:27.575Z,26.10
2023-04-07T04:51:27.608Z,26.70
2023-04-07T04:52:27.559Z,31.60
2023-04-07T04:53:27.703Z,27.90
2023-04-07T04:54:27.531Z,27.70
2023-04-07T04:55:27.522Z,25.70
2023-04-07T04:56:27.553Z,27.60
2023-04-07T04:57:27.545Z,26.50
2023-04-07T04:58:27.460Z,28.00
2023-04-07T04:59:27.518Z,27.10
2023-04-07T05:00:27.471Z,27.50
2023-04-07T05:01:27.508Z,27.60
2023-04-07T05:02:27.572Z,27.30
2023-04-07T05:03:27.656Z,27.30
2023-04-07T05:04:27.562Z,30.70
2023-04-07T05:05:27.380Z,29.10
2023-04-07T05:06:27.411Z,27.70
2023-04-07T05:07:27.383Z,29.80
2023-04-07T05:08:27.349Z,25.80
2023-04-07T05:09:27.354Z,23.90
2023-04-07T05:10:27.363Z,22.00
2023-04-07T05:11:27.360Z,22.30
2023-04-07T05:12:27.365Z,24.10
2023-04-07T05:13:27.325Z,21.70
2023-04-07T05:14:27.309Z,20.70
2023-04-07T05:15:27.346Z,19.20
2023-04-07T05:16:27.259Z,20.20
2023-04-07T05:17:27.963Z,20.00
2023-04-07T05:18:27.202Z,18.60
2023-04-07T05:19:27.252Z,18.40
2023-04-07T05:20:27.205Z,19.40
2023-04-07T05:21:27.230Z,19.80
2023-04-07T05:22:27.139Z,18.70
2023-04-07T05:23:27.262Z,19.80
2023-04-07T05:24:29.069Z,20.90
2023-04-07T05:25:27.208Z,20.10
2023-04-07T05:26:27.300Z,20.20
2023-04-07T05:27:27.119Z,20.80
2023-04-07T05:28:27.116Z,17.90
2023-04-07T05:29:27.232Z,19.00
2023-04-07T05:30:27.168Z,19.20
2023-04-07T05:31:27.162Z,17.40
2023-04-07T05:32:27.222Z,18.10
2023-04-07T05:33:27.086Z,18.10
2023-04-07T05:34:27.591Z,17.70
2023-04-07T05:35:27.123Z,17.80
2023-04-07T05:36:35.514Z,18.30
2023-04-07T05:37:27.010Z,17.10
2023-04-07T05:38:27.170Z,16.00
2023-04-07T05:39:27.254Z,16.80
2023-04-07T05:40:27.202Z,16.20
2023-04-07T05:41:27.230Z,16.90
2023-04-07T05:42:27.305Z,17.00
2023-04-07T05:43:27.178Z,16.90
2023-04-07T05:44:26.998Z,17.50
2023-04-07T05:45:27.296Z,16.70
2023-04-07T05:46:26.983Z,16.80
2023-04-07T05:47:27.135Z,17.00
2023-04-07T05:48:27.141Z,17.30
2023-04-07T05:49:27.151Z,16.80
2023-04-07T05:50:27.163Z,16.80
2023-04-07T05:51:26.926Z,18.50
2023-04-07T05:52:26.968Z,16.40
2023-04-07T05:53:27.039Z,16.80
2023-04-07T05:54:26.826Z,17.30
2023-04-07T05:55:26.875Z,15.80
2023-04-07T05:56:26.929Z,17.10
2023-04-07T05:57:26.956Z,16.90
2023-04-07T05:58:26.957Z,16.90
2023-04-07T05:59:26.773Z,18.90
2023-04-07T06:00:26.776Z,16.00
2023-04-07T06:01:27.069Z,15.70
2023-04-07T06:02:27.354Z,15.50
2023-04-07T06:03:27.858Z,14.70
2023-04-07T06:04:26.745Z,15.50
2023-04-07T06:05:27.083Z,13.90
2023-04-07T06:06:26.673Z,15.00
2023-04-07T06:07:26.665Z,15.20
2023-04-07T06:08:26.872Z,13.70
2023-04-07T06:09:26.940Z,14.30
2023-04-07T06:10:26.728Z,14.50
2023-04-07T06:11:26.774Z,14.00
2023-04-07T06:12:26.944Z,15.00
2023-04-07T06:13:26.694Z,14.80
2023-04-07T06:14:26.988Z,16.60
2023-04-07T06:15:26.621Z,15.70
2023-04-07T06:16:26.623Z,14.00
2023-04-07T06:17:26.807Z,14.10
2023-04-07T06:18:26.668Z,15.70
2023-04-07T06:19:26.639Z,14.30
2023-04-07T06:20:26.804Z,14.40
2023-04-07T06:21:26.659Z,13.90
2023-04-07T06:22:26.956Z,14.40
2023-04-07T06:23:26.670Z,14.30
2023-04-07T06:24:26.553Z,13.30
2023-04-07T06:25:26.662Z,13.00
2023-04-07T06:26:26.470Z,13.50
2023-04-07T06:27:26.586Z,13.00
2023-04-07T06:28:26.394Z,13.70
2023-04-07T06:29:27.650Z,14.00
2023-04-07T06:30:26.594Z,14.10
2023-04-07T06:31:26.395Z,14.50
2023-04-07T06:32:26.746Z,13.90
2023-04-07T06:33:26.637Z,14.20
2023-04-07T06:34:28.192Z,14.20
2023-04-07T06:35:26.397Z,13.70
2023-04-07T06:36:26.412Z,14.10
2023-04-07T06:37:26.380Z,14.20
2023-04-07T06:38:27.131Z,16.80
2023-04-07T06:39:26.380Z,14.80
2023-04-07T06:40:26.530Z,15.20
2023-04-07T06:41:26.486Z,14.80
2023-04-07T06:42:26.765Z,15.90
2023-04-07T06:43:28.974Z,16.10
2023-04-07T06:44:26.345Z,18.10
2023-04-07T06:45:26.518Z,19.60
2023-04-07T06:46:26.379Z,17.90
2023-04-07T06:47:26.111Z,17.90
2023-04-07T06:48:26.205Z,19.50
2023-04-07T06:49:26.339Z,18.10
2023-04-07T06:50:26.208Z,18.50
2023-04-07T06:51:26.373Z,19.30
2023-04-07T06:52:26.370Z,18.90
2023-04-07T06:53:26.142Z,23.50
2023-04-07T06:54:26.186Z,20.40
2023-04-07T06:55:26.889Z,21.20
2023-04-07T06:56:27.202Z,21.20
2023-04-07T06:57:26.389Z,21.10
2023-04-07T06:58:26.277Z,21.90
2023-04-07T06:59:25.975Z,23.00
2023-04-07T07:00:27.320Z,22.80
2023-04-07T07:01:26.191Z,24.00
2023-04-07T07:02:26.108Z,21.80
2023-04-07T07:03:26.571Z,24.20
2023-04-07T07:04:26.492Z,22.00
2023-04-07T07:05:26.041Z,22.20
2023-04-07T07:06:26.581Z,22.00
2023-04-07T07:07:26.030Z,21.30
2023-04-07T07:08:26.300Z,22.10
2023-04-07T07:09:26.174Z,22.60
2023-04-07T07:10:26.197Z,21.60
2023-04-07T07:11:26.035Z,23.40
2023-04-07T07:12:25.954Z,22.50
2023-04-07T07:13:25.851Z,21.40
2023-04-07T07:14:25.957Z,22.00
2023-04-07T07:15:26.934Z,24.50
2023-04-07T07:16:25.814Z,24.10
2023-04-07T07:17:26.427Z,24.20
2023-04-07T07:18:35.284Z,24.10
2023-04-07T07:19:25.835Z,26.40
2023-04-07T07:20:26.147Z,21.60
2023-04-07T07:21:26.037Z,26.00
2023-04-07T07:22:25.714Z,25.20
2023-04-07T07:23:26.620Z,23.00
2023-04-07T07:24:25.765Z,22.80
2023-04-07T07:25:25.781Z,22.50
2023-04-07T07:26:27.493Z,22.20
2023-04-07T07:27:26.600Z,22.50
2023-04-07T07:28:28.229Z,22.70
2023-04-07T07:29:29.847Z,21.80
2023-04-07T07:30:25.635Z,22.80
2023-04-07T07:31:25.677Z,22.00
2023-04-07T07:32:25.679Z,21.60
2023-04-07T07:33:25.692Z,21.10
2023-04-07T07:34:25.988Z,22.50
2023-04-07T07:35:25.685Z,22.30
2023-04-07T07:36:25.775Z,21.90
2023-04-07T07:37:25.694Z,23.00
2023-04-07T07:38:25.886Z,22.70
2023-04-07T07:39:26.011Z,22.80
2023-04-07T07:40:25.642Z,23.30
2023-04-07T07:41:25.562Z,21.80
2023-04-07T07:42:25.531Z,22.70
2023-04-07T07:43:25.653Z,21.60
2023-04-07T07:44:25.516Z,26.20
2023-04-07T07:45:26.482Z,21.30
2023-04-07T07:46:25.527Z,24.00
2023-04-07T07:47:25.346Z,20.10
2023-04-07T07:48:25.382Z,21.10
2023-04-07T07:49:25.297Z,20.90
2023-04-07T07:50:25.597Z,19.40
2023-04-07T07:51:25.623Z,19.50
2023-04-07T07:52:25.335Z,19.30
2023-04-07T07:53:25.509Z,19.20
2023-04-07T07:54:25.512Z,19.00
2023-04-07T07:55:25.437Z,20.90
2023-04-07T07:56:25.668Z,18.00
2023-04-07T07:57:25.617Z,16.80
2023-04-07T07:58:25.425Z,17.00
2023-04-07T07:59:25.578Z,16.90
2023-04-07T08:00:25.293Z,17.70
2023-04-07T08:01:25.218Z,16.60
2023-04-07T08:02:25.272Z,17.70
2023-04-07T08:03:25.334Z,18.00
2023-04-07T08:04:25.104Z,17.20
2023-04-07T08:05:25.200Z,18.40
2023-04-07T08:06:25.256Z,18.50
2023-04-07T08:07:25.067Z,19.70
2023-04-07T08:08:25.034Z,17.10
2023-04-07T08:09:25.133Z,18.50
2023-04-07T08:10:25.270Z,18.70
2023-04-07T08:11:24.960Z,17.20
2023-04-07T08:12:24.920Z,19.00
2023-04-07T08:13:25.141Z,17.90
2023-04-07T08:14:25.478Z,18.50
2023-04-07T08:15:25.282Z,18.70
2023-04-07T08:16:25.327Z,17.90
2023-04-07T08:17:24.968Z,18.50
2023-04-07T08:18:24.949Z,18.00
2023-04-07T08:19:25.857Z,20.90
2023-04-07T08:20:25.048Z,23.20
2023-04-07T08:21:25.097Z,20.90
2023-04-07T08:22:25.034Z,22.20
2023-04-07T08:23:24.747Z,21.30
2023-04-07T08:24:24.784Z,20.60
2023-04-07T08:25:24.738Z,20.30
2023-04-07T08:26:24.727Z,21.80
2023-04-07T08:27:24.738Z,23.60
2023-04-07T08:28:25.062Z,20.50
2023-04-07T08:29:24.866Z,22.50
2023-04-07T08:30:25.717Z,22.50
2023-04-07T08:31:24.796Z,22.00
2023-04-07T08:32:24.689Z,23.10
2023-04-07T08:33:24.683Z,20.70
2023-04-07T08:34:24.626Z,20.80
2023-04-07T08:35:24.584Z,21.10
2023-04-07T08:36:24.614Z,23.40
2023-04-07T08:37:24.579Z,23.10
2023-04-07T08:38:24.560Z,20.30
2023-04-07T08:39:24.532Z,19.00
2023-04-07T08:40:24.538Z,21.30
2023-04-07T08:41:24.562Z,21.40
2023-04-07T08:42:24.517Z,19.70
2023-04-07T08:43:24.644Z,19.90
2023-04-07T08:44:24.806Z,20.20
2023-04-07T08:45:24.904Z,19.20
2023-04-07T08:46:24.993Z,20.80
2023-04-07T08:47:24.758Z,20.40
2023-04-07T08:48:24.681Z,21.90
2023-04-07T08:49:24.574Z,21.90
2023-04-07T08:50:24.828Z,26.00
2023-04-07T08:51:24.510Z,22.30
2023-04-07T08:52:24.696Z,22.70
2023-04-07T08:53:24.413Z,20.10
2023-04-07T08:54:24.971Z,22.80
2023-04-07T08:55:24.423Z,20.80
2023-04-07T08:56:24.728Z,22.00
2023-04-07T08:57:32.082Z,21.40
2023-04-07T08:58:24.314Z,21.80
2023-04-07T08:59:24.269Z,22.10
2023-04-07T09:00:24.316Z,21.00
2023-04-07T09:01:24.339Z,21.00
2023-04-07T09:02:24.360Z,19.70
2023-04-07T09:03:24.366Z,20.00
2023-04-07T09:04:24.249Z,21.30
2023-04-07T09:05:24.233Z,21.20
2023-04-07T09:06:24.189Z,21.90
2023-04-07T09:07:24.168Z,21.70
2023-04-07T09:08:24.186Z,23.10
2023-04-07T09:09:24.161Z,23.00
2023-04-07T09:10:27.790Z,21.50
2023-04-07T09:11:33.650Z,19.90
2023-04-07T09:12:24.099Z,21.60
2023-04-07T09:13:24.083Z,23.80
2023-04-07T09:14:24.126Z,19.80
2023-04-07T09:15:24.038Z,23.60
2023-04-07T09:16:24.091Z,20.30
2023-04-07T09:17:24.040Z,24.80
2023-04-07T09:18:24.107Z,22.20
2023-04-07T09:19:24.019Z,21.10
2023-04-07T09:20:23.978Z,19.70
2023-04-07T09:21:24.017Z,19.10
2023-04-07T09:22:23.946Z,19.90
2023-04-07T09:23:23.983Z,20.00
2023-04-07T09:24:23.939Z,20.20
2023-04-07T09:25:23.996Z,21.50
2023-04-07T09:26:23.897Z,21.90
2023-04-07T09:27:23.916Z,20.20
2023-04-07T09:28:23.894Z,18.60
2023-04-07T09:29:23.886Z,19.00
2023-04-07T09:30:23.854Z,18.10
2023-04-07T09:31:24.045Z,17.60
2023-04-07T09:32:24.235Z,18.20
2023-04-07T09:33:23.811Z,17.90
2023-04-07T09:34:23.820Z,18.70
2023-04-07T09:35:24.210Z,16.80
2023-04-07T09:36:23.765Z,17.10
2023-04-07T09:37:23.749Z,19.30
2023-04-07T09:38:23.807Z,19.20
2023-04-07T09:39:23.770Z,17.10
2023-04-07T09:40:23.738Z,18.00
2023-04-07T09:41:23.693Z,18.40
2023-04-07T09:42:23.675Z,18.00
2023-04-07T09:43:23.659Z,20.50
2023-04-07T09:44:23.687Z,23.20
2023-04-07T09:45:33.316Z,19.60
2023-04-07T09:46:26.148Z,20.60
2023-04-07T09:47:23.610Z,21.30
2023-04-07T09:48:23.648Z,20.60
2023-04-07T09:49:23.624Z,19.70
2023-04-07T09:50:23.619Z,21.10
2023-04-07T09:51:23.550Z,20.20
2023-04-07T09:52:23.576Z,22.00
2023-04-07T09:53:23.845Z,20.40
2023-04-07T09:54:23.908Z,21.40
2023-04-07T09:55:23.543Z,22.00
2023-04-07T09:56:23.501Z,19.90
2023-04-07T09:57:23.490Z,21.20
2023-04-07T09:58:23.495Z,21.20
2023-04-07T09:59:23.457Z,25.70
2023-04-07T10:00:23.467Z,22.30
2023-04-07T10:01:23.447Z,22.10
2023-04-07T10:02:23.960Z,20.40
2023-04-07T10:03:25.531Z,21.90
2023-04-07T10:04:23.533Z,24.00
2023-04-07T10:05:23.383Z,21.50
2023-04-07T10:06:23.386Z,22.10
2023-04-07T10:07:23.378Z,21.50
2023-04-07T10:08:23.351Z,22.90
2023-04-07T10:09:23.684Z,21.30
2023-04-07T10:10:23.911Z,22.00
2023-04-07T10:11:26.944Z,20.80
2023-04-07T10:12:23.370Z,22.10
2023-04-07T10:13:23.325Z,22.00
2023-04-07T10:14:23.387Z,21.50
2023-04-07T10:15:23.361Z,20.60
2023-04-07T10:16:23.251Z,20.60
2023-04-07T10:17:23.218Z,21.60
2023-04-07T10:18:23.227Z,20.20
2023-04-07T10:19:23.213Z,20.80
2023-04-07T10:20:23.245Z,18.40
2023-04-07T10:21:23.149Z,18.40
2023-04-07T10:22:23.169Z,19.60
2023-04-07T10:23:23.114Z,18.40
2023-04-07T10:24:23.110Z,18.60
2023-04-07T10:25:23.093Z,16.10
2023-04-07T10:26:23.104Z,17.30
2023-04-07T10:27:23.060Z,16.20
2023-04-07T10:28:23.082Z,15.50
2023-04-07T10:29:23.055Z,14.70
2023-04-07T10:30:23.023Z,15.10
2023-04-07T10:31:23.040Z,16.70
2023-04-07T10:32:23.010Z,16.30
2023-04-07T10:33:23.129Z,17.00
2023-04-07T10:34:22.993Z,16.80
2023-04-07T10:35:23.093Z,16.90
2023-04-07T10:36:22.998Z,16.60
2023-04-07T10:37:22.958Z,16.10
2023-04-07T10:38:22.986Z,16.10
2023-04-07T10:39:22.902Z,16.10
2023-04-07T10:40:22.872Z,16.20
2023-04-07T10:41:22.875Z,17.70
2023-04-07T10:42:23.063Z,16.30
2023-04-07T10:43:22.902Z,16.10
2023-04-07T10:44:22.873Z,17.00
2023-04-07T10:45:22.934Z,16.90
2023-04-07T10:46:22.803Z,15.60
2023-04-07T10:47:22.824Z,16.00
2023-04-07T10:48:22.847Z,16.80
2023-04-07T10:49:22.738Z,16.10
2023-04-07T10:50:22.756Z,14.50
2023-04-07T10:51:22.726Z,15.60
2023-04-07T10:52:22.727Z,14.40
2023-04-07T10:53:22.730Z,14.40
2023-04-07T10:54:23.074Z,13.70
2023-04-07T10:55:22.657Z,13.60
2023-04-07T10:56:22.677Z,13.90
2023-04-07T10:57:22.686Z,13.80
2023-04-07T10:58:22.833Z,13.30
2023-04-07T10:59:22.587Z,13.00
2023-04-07T11:00:22.638Z,13.80
2023-04-07T11:01:22.618Z,14.20
2023-04-07T11:02:22.743Z,15.60
2023-04-07T11:03:22.727Z,13.00
2023-04-07T11:04:22.680Z,13.90
2023-04-07T11:05:22.573Z,13.50
2023-04-07T11:06:22.568Z,13.80
2023-04-07T11:07:22.489Z,15.60
2023-04-07T11:08:22.488Z,14.20
2023-04-07T11:09:22.449Z,14.30
2023-04-07T11:10:22.480Z,13.30
2023-04-07T11:11:22.447Z,13.70
2023-04-07T11:12:22.440Z,15.40
2023-04-07T11:13:22.453Z,15.00
2023-04-07T11:14:22.426Z,14.50
2023-04-07T11:15:22.432Z,14.70
2023-04-07T11:16:22.435Z,14.60
2023-04-07T11:17:22.392Z,13.80
2023-04-07T11:18:22.394Z,13.80
2023-04-07T11:19:22.330Z,13.80
2023-04-07T11:20:22.331Z,12.90
2023-04-07T11:21:22.276Z,13.10
2023-04-07T11:22:29.795Z,12.40
2023-04-07T11:23:23.248Z,12.00
2023-04-07T11:24:22.271Z,10.80
2023-04-07T11:25:22.265Z,10.50
2023-04-07T11:26:22.267Z,10.40
2023-04-07T11:27:22.208Z,10.70
2023-04-07T11:28:22.225Z,11.30
2023-04-07T11:29:22.187Z,11.50
2023-04-07T11:30:22.189Z,10.80
2023-04-07T11:31:22.192Z,10.70
2023-04-07T11:32:24.889Z,10.40
2023-04-07T11:33:22.200Z,10.50
2023-04-07T11:34:22.109Z,11.40
2023-04-07T11:35:22.150Z,10.80
2023-04-07T11:36:22.097Z,11.50
2023-04-07T11:37:22.089Z,10.20
2023-04-07T11:38:22.064Z,10.60
2023-04-07T11:39:22.184Z,10.30
2023-04-07T11:40:22.003Z,9.00
2023-04-07T11:41:22.007Z,9.10
2023-04-07T11:42:22.040Z,9.00
2023-04-07T11:43:21.989Z,11.20
2023-04-07T11:44:21.967Z,12.40
2023-04-07T11:45:21.967Z,11.80
2023-04-07T11:46:22.053Z,11.50
2023-04-07T11:47:21.970Z,11.80
2023-04-07T11:48:21.907Z,9.70
2023-04-07T11:49:21.876Z,11.60
2023-04-07T11:50:21.916Z,9.60
2023-04-07T11:51:21.865Z,9.50
2023-04-07T11:52:21.895Z,8.80
2023-04-07T11:53:21.824Z,9.20
2023-04-07T11:54:21.797Z,9.20
2023-04-07T11:55:22.541Z,8.90
2023-04-07T11:56:21.779Z,8.50
2023-04-07T11:57:21.762Z,9.00
2023-04-07T11:58:21.799Z,8.70
2023-04-07T11:59:21.775Z,9.30
2023-04-07T12:00:21.711Z,9.90
2023-04-07T12:01:21.706Z,9.70
2023-04-07T12:02:21.775Z,9.40
2023-04-07T12:03:21.744Z,9.30
2023-04-07T12:04:21.785Z,10.10
2023-04-07T12:05:21.656Z,9.40
2023-04-07T12:06:21.627Z,9.80
2023-04-07T12:07:21.611Z,10.10
2023-04-07T12:08:21.664Z,10.00
2023-04-07T12:09:21.644Z,10.10
2023-04-07T12:10:21.610Z,11.60
2023-04-07T12:11:21.589Z,11.00
2023-04-07T12:12:21.543Z,11.80
2023-04-07T12:13:21.535Z,12.10
2023-04-07T12:14:21.554Z,12.90
2023-04-07T12:15:21.560Z,11.70
2023-04-07T12:16:21.537Z,12.70
2023-04-07T12:17:21.515Z,13.80
2023-04-07T12:18:21.463Z,13.00
2023-04-07T12:19:21.495Z,12.50
2023-04-07T12:20:21.421Z,13.30
2023-04-07T12:21:21.415Z,12.50
2023-04-07T12:22:21.453Z,13.60
2023-04-07T12:23:21.412Z,13.60
2023-04-07T12:24:21.426Z,13.50
2023-04-07T12:25:21.444Z,14.30
2023-04-07T12:26:23.207Z,14.60
2023-04-07T12:27:29.443Z,14.40
2023-04-07T12:28:43.515Z,15.00
2023-04-07T12:29:42.342Z,15.10
2023-04-07T12:30:21.329Z,15.30
2023-04-07T12:31:21.340Z,16.30
2023-04-07T12:32:21.420Z,15.50
2023-04-07T12:33:21.299Z,14.60
2023-04-07T12:34:21.228Z,14.90
2023-04-07T12:35:21.267Z,14.40
2023-04-07T12:36:21.325Z,14.80
2023-04-07T12:37:21.242Z,14.70
2023-04-07T12:38:21.242Z,14.70
2023-04-07T12:39:21.236Z,14.80
2023-04-07T12:40:21.223Z,15.00
2023-04-07T12:41:21.143Z,14.60
2023-04-07T12:42:21.156Z,15.10
2023-04-07T12:43:21.164Z,15.10
2023-04-07T12:44:21.208Z,13.50
2023-04-07T12:45:21.186Z,14.00
2023-04-07T12:46:21.159Z,13.10
2023-04-07T12:47:21.248Z,13.70
2023-04-07T12:48:21.035Z,12.40
2023-04-07T12:49:21.121Z,12.70
2023-04-07T12:50:21.022Z,13.60
2023-04-07T12:51:21.001Z,14.00
2023-04-07T12:52:21.043Z,13.90
2023-04-07T12:53:20.982Z,12.50